sensor_id;sensor_type;location;lat;lon;timestamp;temperature;humidity
65584;DHT22;73032;43.592;1.458;2023-12-28T00:01:46;9.47;84.22
65584;DHT22;73032;43.592;1.458;2023-12-28T00:04:13;9.51;84.20
65584;DHT22;73032;43.592;1.458;2023-12-28T00:06:40;9.50;84.27
65584;DHT22;73032;43.592;1.458;2023-12-28T00:09:07;9.47;84.41
65584;DHT22;73032;43.592;1.458;2023-12-28T00:11:38;9.50;84.37
65584;DHT22;73032;43.592;1.458;2023-12-28T00:14:05;9.51;84.31
65584;DHT22;73032;43.592;1.458;2023-12-28T00:16:32;9.51;84.42
65584;DHT22;73032;43.592;1.458;2023-12-28T00:19:00;9.48;84.38
65584;DHT22;73032;43.592;1.458;2023-12-28T00:21:30;9.51;84.32
65584;DHT22;73032;43.592;1.458;2023-12-28T00:23:56;9.51;84.38
65584;DHT22;73032;43.592;1.458;2023-12-28T00:26:23;9.47;84.32
65584;DHT22;73032;43.592;1.458;2023-12-28T00:28:50;9.46;84.40
65584;DHT22;73032;43.592;1.458;2023-12-28T00:31:16;9.43;84.60
65584;DHT22;73032;43.592;1.458;2023-12-28T00:33:43;9.44;84.63
65584;DHT22;73032;43.592;1.458;2023-12-28T00:36:10;9.43;84.62
65584;DHT22;73032;43.592;1.458;2023-12-28T00:38:37;9.41;84.56
65584;DHT22;73032;43.592;1.458;2023-12-28T00:41:04;9.40;84.47
65584;DHT22;73032;43.592;1.458;2023-12-28T00:43:31;9.36;84.51
65584;DHT22;73032;43.592;1.458;2023-12-28T00:45:57;9.34;84.64
65584;DHT22;73032;43.592;1.458;2023-12-28T00:48:24;9.34;84.81
65584;DHT22;73032;43.592;1.458;2023-12-28T00:50:52;9.34;84.90
65584;DHT22;73032;43.592;1.458;2023-12-28T00:53:19;9.37;85.00
65584;DHT22;73032;43.592;1.458;2023-12-28T00:55:46;9.38;85.43
65584;DHT22;73032;43.592;1.458;2023-12-28T00:58:13;9.38;85.22
65584;DHT22;73032;43.592;1.458;2023-12-28T01:00:39;9.41;85.35
65584;DHT22;73032;43.592;1.458;2023-12-28T01:03:06;9.41;85.25
65584;DHT22;73032;43.592;1.458;2023-12-28T01:05:33;9.44;85.13
65584;DHT22;73032;43.592;1.458;2023-12-28T01:08:00;9.43;85.25
65584;DHT22;73032;43.592;1.458;2023-12-28T01:10:26;9.41;85.22
65584;DHT22;73032;43.592;1.458;2023-12-28T01:12:53;9.34;85.45
65584;DHT22;73032;43.592;1.458;2023-12-28T01:15:20;9.36;85.43
65584;DHT22;73032;43.592;1.458;2023-12-28T01:17:47;9.33;85.44
65584;DHT22;73032;43.592;1.458;2023-12-28T01:20:14;9.33;85.57
65584;DHT22;73032;43.592;1.458;2023-12-28T01:22:41;9.34;85.49
65584;DHT22;73032;43.592;1.458;2023-12-28T01:25:07;9.31;85.37
65584;DHT22;73032;43.592;1.458;2023-12-28T01:27:34;9.28;85.38
65584;DHT22;73032;43.592;1.458;2023-12-28T01:30:01;9.24;85.41
65584;DHT22;73032;43.592;1.458;2023-12-28T01:32:28;9.20;85.42
65584;DHT22;73032;43.592;1.458;2023-12-28T01:34:55;9.20;85.47
65584;DHT22;73032;43.592;1.458;2023-12-28T01:37:22;9.17;85.49
65584;DHT22;73032;43.592;1.458;2023-12-28T01:39:49;9.13;85.62
65584;DHT22;73032;43.592;1.458;2023-12-28T01:42:16;9.10;85.56
65584;DHT22;73032;43.592;1.458;2023-12-28T01:44:43;9.06;85.67
65584;DHT22;73032;43.592;1.458;2023-12-28T01:47:10;9.03;85.63
65584;DHT22;73032;43.592;1.458;2023-12-28T01:49:37;9.00;85.69
65584;DHT22;73032;43.592;1.458;2023-12-28T01:52:04;9.00;85.58
65584;DHT22;73032;43.592;1.458;2023-12-28T01:54:31;8.97;85.64
65584;DHT22;73032;43.592;1.458;2023-12-28T01:57:00;8.96;85.56
65584;DHT22;73032;43.592;1.458;2023-12-28T01:59:27;8.95;85.57
65584;DHT22;73032;43.592;1.458;2023-12-28T02:01:54;8.92;85.50
65584;DHT22;73032;43.592;1.458;2023-12-28T02:04:21;8.89;85.42
65584;DHT22;73032;43.592;1.458;2023-12-28T02:06:59;8.85;85.44
65584;DHT22;73032;43.592;1.458;2023-12-28T02:09:26;8.87;85.52
65584;DHT22;73032;43.592;1.458;2023-12-28T02:11:54;8.82;85.38
65584;DHT22;73032;43.592;1.458;2023-12-28T02:14:21;8.82;85.28
65584;DHT22;73032;43.592;1.458;2023-12-28T02:17:02;8.79;85.33
65584;DHT22;73032;43.592;1.458;2023-12-28T02:19:45;8.75;85.16
65584;DHT22;73032;43.592;1.458;2023-12-28T02:22:14;8.69;85.26
65584;DHT22;73032;43.592;1.458;2023-12-28T02:25:17;8.68;85.33
65584;DHT22;73032;43.592;1.458;2023-12-28T02:27:46;8.62;85.24
65584;DHT22;73032;43.592;1.458;2023-12-28T02:30:15;8.59;85.17
65584;DHT22;73032;43.592;1.458;2023-12-28T02:35:45;8.53;85.22
65584;DHT22;73032;43.592;1.458;2023-12-28T02:38:14;8.51;85.19
65584;DHT22;73032;43.592;1.458;2023-12-28T02:40:43;8.51;85.06
65584;DHT22;73032;43.592;1.458;2023-12-28T02:43:11;8.52;85.13
65584;DHT22;73032;43.592;1.458;2023-12-28T02:45:39;8.48;85.20
65584;DHT22;73032;43.592;1.458;2023-12-28T02:48:06;8.45;85.24
65584;DHT22;73032;43.592;1.458;2023-12-28T02:50:34;8.44;85.22
65584;DHT22;73032;43.592;1.458;2023-12-28T02:53:02;8.45;85.17
65584;DHT22;73032;43.592;1.458;2023-12-28T02:55:29;8.41;85.17
65584;DHT22;73032;43.592;1.458;2023-12-28T02:57:57;8.38;85.15
65584;DHT22;73032;43.592;1.458;2023-12-28T03:00:27;8.37;85.21
65584;DHT22;73032;43.592;1.458;2023-12-28T03:02:55;8.35;85.15
65584;DHT22;73032;43.592;1.458;2023-12-28T03:05:22;8.38;85.32
65584;DHT22;73032;43.592;1.458;2023-12-28T03:07:49;8.32;85.40
65584;DHT22;73032;43.592;1.458;2023-12-28T03:10:16;8.34;85.28
65584;DHT22;73032;43.592;1.458;2023-12-28T03:12:43;8.29;85.24
65584;DHT22;73032;43.592;1.458;2023-12-28T03:15:10;8.25;85.33
65584;DHT22;73032;43.592;1.458;2023-12-28T03:17:37;8.24;85.31
65584;DHT22;73032;43.592;1.458;2023-12-28T03:20:05;8.21;85.32
65584;DHT22;73032;43.592;1.458;2023-12-28T03:22:32;8.20;85.22
65584;DHT22;73032;43.592;1.458;2023-12-28T03:24:59;8.18;85.34
65584;DHT22;73032;43.592;1.458;2023-12-28T03:27:26;8.15;85.35
65584;DHT22;73032;43.592;1.458;2023-12-28T03:29:53;8.14;85.43
65584;DHT22;73032;43.592;1.458;2023-12-28T03:32:19;8.11;85.48
65584;DHT22;73032;43.592;1.458;2023-12-28T03:34:46;8.08;85.53
65584;DHT22;73032;43.592;1.458;2023-12-28T03:37:13;8.07;85.58
65584;DHT22;73032;43.592;1.458;2023-12-28T03:39:40;8.02;85.70
65584;DHT22;73032;43.592;1.458;2023-12-28T03:42:07;8.01;85.71
65584;DHT22;73032;43.592;1.458;2023-12-28T03:44:33;8.01;85.76
65584;DHT22;73032;43.592;1.458;2023-12-28T03:47:00;8.01;85.86
65584;DHT22;73032;43.592;1.458;2023-12-28T03:49:27;8.04;86.07
65584;DHT22;73032;43.592;1.458;2023-12-28T03:51:54;8.04;86.16
65584;DHT22;73032;43.592;1.458;2023-12-28T03:54:21;8.08;86.24
65584;DHT22;73032;43.592;1.458;2023-12-28T03:56:48;8.12;86.21
65584;DHT22;73032;43.592;1.458;2023-12-28T03:59:15;8.14;86.16
65584;DHT22;73032;43.592;1.458;2023-12-28T04:01:42;8.14;86.10
65584;DHT22;73032;43.592;1.458;2023-12-28T04:04:09;8.15;86.12
65584;DHT22;73032;43.592;1.458;2023-12-28T04:06:37;8.11;86.21
65584;DHT22;73032;43.592;1.458;2023-12-28T04:09:04;8.15;86.19
65584;DHT22;73032;43.592;1.458;2023-12-28T04:11:31;8.15;86.28
65584;DHT22;73032;43.592;1.458;2023-12-28T04:13:58;8.17;86.38
65584;DHT22;73032;43.592;1.458;2023-12-28T04:16:24;8.20;86.43
65584;DHT22;73032;43.592;1.458;2023-12-28T04:18:51;8.22;86.41
65584;DHT22;73032;43.592;1.458;2023-12-28T04:21:18;8.20;86.30
65584;DHT22;73032;43.592;1.458;2023-12-28T04:23:45;8.18;86.32
65584;DHT22;73032;43.592;1.458;2023-12-28T04:26:12;8.18;86.57
65584;DHT22;73032;43.592;1.458;2023-12-28T04:28:39;8.20;86.46
65584;DHT22;73032;43.592;1.458;2023-12-28T04:31:06;8.21;86.48
65584;DHT22;73032;43.592;1.458;2023-12-28T04:33:33;8.21;86.41
65584;DHT22;73032;43.592;1.458;2023-12-28T04:36:01;8.24;86.46
65584;DHT22;73032;43.592;1.458;2023-12-28T04:38:30;8.24;86.45
65584;DHT22;73032;43.592;1.458;2023-12-28T04:40:58;8.21;86.52
65584;DHT22;73032;43.592;1.458;2023-12-28T04:43:25;8.21;86.75
65584;DHT22;73032;43.592;1.458;2023-12-28T04:45:52;8.22;86.44
65584;DHT22;73032;43.592;1.458;2023-12-28T04:48:18;8.24;86.51
65584;DHT22;73032;43.592;1.458;2023-12-28T04:50:51;8.22;86.51
65584;DHT22;73032;43.592;1.458;2023-12-28T04:53:19;8.24;86.45
65584;DHT22;73032;43.592;1.458;2023-12-28T04:55:46;8.24;86.38
65584;DHT22;73032;43.592;1.458;2023-12-28T04:58:13;8.22;86.32
65584;DHT22;73032;43.592;1.458;2023-12-28T05:00:40;8.21;86.60
65584;DHT22;73032;43.592;1.458;2023-12-28T05:03:07;8.22;86.49
65584;DHT22;73032;43.592;1.458;2023-12-28T05:05:34;8.25;86.55
65584;DHT22;73032;43.592;1.458;2023-12-28T05:08:01;8.21;86.68
65584;DHT22;73032;43.592;1.458;2023-12-28T05:10:28;8.21;86.74
65584;DHT22;73032;43.592;1.458;2023-12-28T05:12:54;8.24;86.73
65584;DHT22;73032;43.592;1.458;2023-12-28T05:15:28;8.21;86.78
65584;DHT22;73032;43.592;1.458;2023-12-28T05:17:55;8.22;86.82
65584;DHT22;73032;43.592;1.458;2023-12-28T05:20:22;8.24;86.86
65584;DHT22;73032;43.592;1.458;2023-12-28T05:22:48;8.25;86.86
65584;DHT22;73032;43.592;1.458;2023-12-28T05:25:15;8.27;86.93
65584;DHT22;73032;43.592;1.458;2023-12-28T05:27:42;8.25;87.17
65584;DHT22;73032;43.592;1.458;2023-12-28T05:30:09;8.31;87.30
65584;DHT22;73032;43.592;1.458;2023-12-28T05:32:38;8.31;87.22
65584;DHT22;73032;43.592;1.458;2023-12-28T05:35:05;8.37;87.20
65584;DHT22;73032;43.592;1.458;2023-12-28T05:37:32;8.39;87.25
65584;DHT22;73032;43.592;1.458;2023-12-28T05:39:59;8.44;87.30
65584;DHT22;73032;43.592;1.458;2023-12-28T05:42:26;8.46;87.19
65584;DHT22;73032;43.592;1.458;2023-12-28T05:44:53;8.51;87.22
65584;DHT22;73032;43.592;1.458;2023-12-28T05:47:22;8.55;87.20
65584;DHT22;73032;43.592;1.458;2023-12-28T05:49:50;8.55;87.17
65584;DHT22;73032;43.592;1.458;2023-12-28T05:52:18;8.59;87.19
65584;DHT22;73032;43.592;1.458;2023-12-28T05:54:46;8.58;87.00
65584;DHT22;73032;43.592;1.458;2023-12-28T05:57:14;8.59;86.91
65584;DHT22;73032;43.592;1.458;2023-12-28T05:59:41;8.59;87.01
65584;DHT22;73032;43.592;1.458;2023-12-28T06:02:08;8.58;87.09
65584;DHT22;73032;43.592;1.458;2023-12-28T06:04:38;8.59;87.16
65584;DHT22;73032;43.592;1.458;2023-12-28T06:07:08;8.63;87.12
65584;DHT22;73032;43.592;1.458;2023-12-28T06:09:37;8.63;87.01
65584;DHT22;73032;43.592;1.458;2023-12-28T06:12:08;8.63;86.88
65584;DHT22;73032;43.592;1.458;2023-12-28T06:14:35;8.62;86.81
65584;DHT22;73032;43.592;1.458;2023-12-28T06:17:04;8.65;86.88
65584;DHT22;73032;43.592;1.458;2023-12-28T06:19:31;8.65;86.86
65584;DHT22;73032;43.592;1.458;2023-12-28T06:21:58;8.66;86.90
65584;DHT22;73032;43.592;1.458;2023-12-28T06:24:25;8.66;87.09
65584;DHT22;73032;43.592;1.458;2023-12-28T06:26:52;8.72;87.11
65584;DHT22;73032;43.592;1.458;2023-12-28T06:29:19;8.77;87.08
65584;DHT22;73032;43.592;1.458;2023-12-28T06:31:45;8.79;87.28
65584;DHT22;73032;43.592;1.458;2023-12-28T06:34:12;8.83;87.34
65584;DHT22;73032;43.592;1.458;2023-12-28T06:36:39;8.85;87.24
65584;DHT22;73032;43.592;1.458;2023-12-28T06:39:06;8.87;87.24
65584;DHT22;73032;43.592;1.458;2023-12-28T06:41:32;8.92;87.37
65584;DHT22;73032;43.592;1.458;2023-12-28T06:43:59;8.93;87.48
65584;DHT22;73032;43.592;1.458;2023-12-28T06:46:26;8.96;87.32
65584;DHT22;73032;43.592;1.458;2023-12-28T06:48:52;9.02;87.35
65584;DHT22;73032;43.592;1.458;2023-12-28T06:51:19;9.06;87.29
65584;DHT22;73032;43.592;1.458;2023-12-28T06:53:47;9.06;87.49
65584;DHT22;73032;43.592;1.458;2023-12-28T06:56:15;9.12;87.69
65584;DHT22;73032;43.592;1.458;2023-12-28T06:58:42;9.17;87.45
65584;DHT22;73032;43.592;1.458;2023-12-28T07:01:09;9.16;87.63
65584;DHT22;73032;43.592;1.458;2023-12-28T07:03:38;9.22;87.64
65584;DHT22;73032;43.592;1.458;2023-12-28T07:06:08;9.28;87.36
65584;DHT22;73032;43.592;1.458;2023-12-28T07:08:35;9.31;87.36
65584;DHT22;73032;43.592;1.458;2023-12-28T07:11:03;9.38;87.32
65584;DHT22;73032;43.592;1.458;2023-12-28T07:13:31;9.38;87.30
65584;DHT22;73032;43.592;1.458;2023-12-28T07:15:58;9.40;87.43
65584;DHT22;73032;43.592;1.458;2023-12-28T07:18:26;9.48;87.17
65584;DHT22;73032;43.592;1.458;2023-12-28T07:20:54;9.46;87.50
65584;DHT22;73032;43.592;1.458;2023-12-28T07:23:21;9.50;87.31
65584;DHT22;73032;43.592;1.458;2023-12-28T07:25:48;9.58;87.08
65584;DHT22;73032;43.592;1.458;2023-12-28T07:28:15;9.60;87.07
65584;DHT22;73032;43.592;1.458;2023-12-28T07:30:41;9.62;87.04
65584;DHT22;73032;43.592;1.458;2023-12-28T07:33:09;9.64;86.95
65584;DHT22;73032;43.592;1.458;2023-12-28T07:35:36;9.67;86.96
65584;DHT22;73032;43.592;1.458;2023-12-28T07:38:03;9.70;86.86
65584;DHT22;73032;43.592;1.458;2023-12-28T07:40:29;9.73;86.67
65584;DHT22;73032;43.592;1.458;2023-12-28T07:42:56;9.75;86.51
65584;DHT22;73032;43.592;1.458;2023-12-28T07:45:23;9.78;86.48
65584;DHT22;73032;43.592;1.458;2023-12-28T07:47:51;9.81;86.46
65584;DHT22;73032;43.592;1.458;2023-12-28T07:50:19;9.87;86.06
65584;DHT22;73032;43.592;1.458;2023-12-28T07:52:46;9.87;86.11
65584;DHT22;73032;43.592;1.458;2023-12-28T07:55:13;9.91;86.19
65584;DHT22;73032;43.592;1.458;2023-12-28T07:57:41;9.94;85.96
65584;DHT22;73032;43.592;1.458;2023-12-28T08:00:08;9.92;86.22
65584;DHT22;73032;43.592;1.458;2023-12-28T08:02:36;9.95;86.00
65584;DHT22;73032;43.592;1.458;2023-12-28T08:05:04;9.98;86.13
65584;DHT22;73032;43.592;1.458;2023-12-28T08:07:31;9.98;86.05
65584;DHT22;73032;43.592;1.458;2023-12-28T08:09:58;9.99;86.20
65584;DHT22;73032;43.592;1.458;2023-12-28T08:12:25;10.04;85.95
65584;DHT22;73032;43.592;1.458;2023-12-28T08:14:55;10.02;85.87
65584;DHT22;73032;43.592;1.458;2023-12-28T08:17:22;9.91;85.79
65584;DHT22;73032;43.592;1.458;2023-12-28T08:19:49;9.99;86.22
65584;DHT22;73032;43.592;1.458;2023-12-28T08:22:16;9.97;86.26
65584;DHT22;73032;43.592;1.458;2023-12-28T08:24:43;10.01;86.39
65584;DHT22;73032;43.592;1.458;2023-12-28T08:27:10;10.04;86.24
65584;DHT22;73032;43.592;1.458;2023-12-28T08:29:37;10.02;86.17
65584;DHT22;73032;43.592;1.458;2023-12-28T08:32:04;10.11;85.93
65584;DHT22;73032;43.592;1.458;2023-12-28T08:34:30;10.08;85.94
65584;DHT22;73032;43.592;1.458;2023-12-28T08:36:57;10.11;85.81
65584;DHT22;73032;43.592;1.458;2023-12-28T08:39:24;10.16;85.61
65584;DHT22;73032;43.592;1.458;2023-12-28T08:41:51;10.18;85.59
65584;DHT22;73032;43.592;1.458;2023-12-28T08:44:18;10.19;85.46
65584;DHT22;73032;43.592;1.458;2023-12-28T08:46:44;10.19;85.55
65584;DHT22;73032;43.592;1.458;2023-12-28T08:49:12;10.21;85.63
65584;DHT22;73032;43.592;1.458;2023-12-28T08:51:39;10.22;85.61
65584;DHT22;73032;43.592;1.458;2023-12-28T08:54:10;10.21;85.53
65584;DHT22;73032;43.592;1.458;2023-12-28T08:56:37;10.24;85.71
65584;DHT22;73032;43.592;1.458;2023-12-28T08:59:03;10.25;85.66
65584;DHT22;73032;43.592;1.458;2023-12-28T09:01:30;10.26;85.67
65584;DHT22;73032;43.592;1.458;2023-12-28T09:03:58;10.31;85.67
65584;DHT22;73032;43.592;1.458;2023-12-28T09:06:25;10.35;85.71
65584;DHT22;73032;43.592;1.458;2023-12-28T09:08:53;10.35;85.72
65584;DHT22;73032;43.592;1.458;2023-12-28T09:11:20;10.41;85.76
65584;DHT22;73032;43.592;1.458;2023-12-28T09:13:48;10.45;85.50
65584;DHT22;73032;43.592;1.458;2023-12-28T09:16:15;10.45;85.54
65584;DHT22;73032;43.592;1.458;2023-12-28T09:18:42;10.48;85.56
65584;DHT22;73032;43.592;1.458;2023-12-28T09:21:10;10.53;85.22
65584;DHT22;73032;43.592;1.458;2023-12-28T09:23:37;10.56;85.21
65584;DHT22;73032;43.592;1.458;2023-12-28T09:26:05;10.60;85.28
65584;DHT22;73032;43.592;1.458;2023-12-28T09:28:33;10.62;85.41
65584;DHT22;73032;43.592;1.458;2023-12-28T09:31:00;10.66;85.26
65584;DHT22;73032;43.592;1.458;2023-12-28T09:33:28;10.69;85.28
65584;DHT22;73032;43.592;1.458;2023-12-28T09:35:55;10.67;85.34
65584;DHT22;73032;43.592;1.458;2023-12-28T09:38:22;10.72;85.29
65584;DHT22;73032;43.592;1.458;2023-12-28T09:40:53;10.69;85.44
65584;DHT22;73032;43.592;1.458;2023-12-28T09:43:24;10.72;85.49
65584;DHT22;73032;43.592;1.458;2023-12-28T09:45:53;10.80;85.46
65584;DHT22;73032;43.592;1.458;2023-12-28T09:48:21;10.80;85.45
65584;DHT22;73032;43.592;1.458;2023-12-28T09:50:53;10.83;85.60
65584;DHT22;73032;43.592;1.458;2023-12-28T09:53:25;10.81;85.60
65584;DHT22;73032;43.592;1.458;2023-12-28T09:55:52;10.80;85.83
65584;DHT22;73032;43.592;1.458;2023-12-28T09:58:20;10.83;85.80
65584;DHT22;73032;43.592;1.458;2023-12-28T10:00:49;10.90;85.69
65584;DHT22;73032;43.592;1.458;2023-12-28T10:03:17;10.95;85.47
65584;DHT22;73032;43.592;1.458;2023-12-28T10:05:46;10.97;85.56
65584;DHT22;73032;43.592;1.458;2023-12-28T10:08:14;11.01;85.41
65584;DHT22;73032;43.592;1.458;2023-12-28T10:10:43;11.00;85.51
65584;DHT22;73032;43.592;1.458;2023-12-28T10:13:13;11.06;85.44
65584;DHT22;73032;43.592;1.458;2023-12-28T10:15:42;11.06;85.41
65584;DHT22;73032;43.592;1.458;2023-12-28T10:18:10;11.07;85.37
65584;DHT22;73032;43.592;1.458;2023-12-28T10:20:37;11.09;85.42
65584;DHT22;73032;43.592;1.458;2023-12-28T10:23:04;11.10;85.42
65584;DHT22;73032;43.592;1.458;2023-12-28T10:25:32;11.13;85.27
65584;DHT22;73032;43.592;1.458;2023-12-28T10:28:04;11.16;85.33
65584;DHT22;73032;43.592;1.458;2023-12-28T10:30:32;11.16;85.20
65584;DHT22;73032;43.592;1.458;2023-12-28T10:33:00;11.23;85.10
65584;DHT22;73032;43.592;1.458;2023-12-28T10:35:28;11.26;85.10
65584;DHT22;73032;43.592;1.458;2023-12-28T10:37:56;11.31;84.91
65584;DHT22;73032;43.592;1.458;2023-12-28T10:40:26;11.31;84.93
65584;DHT22;73032;43.592;1.458;2023-12-28T10:43:05;11.37;84.75
65584;DHT22;73032;43.592;1.458;2023-12-28T10:45:33;11.40;84.67
65584;DHT22;73032;43.592;1.458;2023-12-28T10:50:41;11.40;84.70
65584;DHT22;73032;43.592;1.458;2023-12-28T10:53:25;11.44;84.65
65584;DHT22;73032;43.592;1.458;2023-12-28T11:01:37;11.48;84.65
65584;DHT22;73032;43.592;1.458;2023-12-28T11:06:50;11.47;84.49
65584;DHT22;73032;43.592;1.458;2023-12-28T11:09:18;11.50;84.60
65584;DHT22;73032;43.592;1.458;2023-12-28T11:11:46;11.52;84.51
65584;DHT22;73032;43.592;1.458;2023-12-28T11:14:14;11.54;84.52
65584;DHT22;73032;43.592;1.458;2023-12-28T11:16:41;11.61;84.14
65584;DHT22;73032;43.592;1.458;2023-12-28T11:19:09;11.57;84.57
65584;DHT22;73032;43.592;1.458;2023-12-28T11:21:38;11.61;84.53
65584;DHT22;73032;43.592;1.458;2023-12-28T11:24:05;11.62;84.40
65584;DHT22;73032;43.592;1.458;2023-12-28T11:26:32;11.65;84.17
65584;DHT22;73032;43.592;1.458;2023-12-28T11:29:03;11.61;84.01
65584;DHT22;73032;43.592;1.458;2023-12-28T11:31:34;11.65;83.86
65584;DHT22;73032;43.592;1.458;2023-12-28T11:34:04;11.62;83.64
65584;DHT22;73032;43.592;1.458;2023-12-28T11:36:48;11.62;83.73
65584;DHT22;73032;43.592;1.458;2023-12-28T11:42:07;11.61;83.79
65584;DHT22;73032;43.592;1.458;2023-12-28T11:44:42;11.60;83.41
65584;DHT22;73032;43.592;1.458;2023-12-28T11:47:15;11.62;83.29
65584;DHT22;73032;43.592;1.458;2023-12-28T11:49:42;11.70;83.05
65584;DHT22;73032;43.592;1.458;2023-12-28T11:52:10;11.65;83.32
65584;DHT22;73032;43.592;1.458;2023-12-28T11:54:37;11.64;82.88
65584;DHT22;73032;43.592;1.458;2023-12-28T11:57:04;11.61;83.03
65584;DHT22;73032;43.592;1.458;2023-12-28T11:59:32;11.62;83.14
65584;DHT22;73032;43.592;1.458;2023-12-28T12:01:59;11.70;83.14
65584;DHT22;73032;43.592;1.458;2023-12-28T12:04:26;11.64;83.20
65584;DHT22;73032;43.592;1.458;2023-12-28T12:06:53;11.64;83.12
65584;DHT22;73032;43.592;1.458;2023-12-28T12:09:20;11.64;83.00
65584;DHT22;73032;43.592;1.458;2023-12-28T12:11:49;11.74;82.54
65584;DHT22;73032;43.592;1.458;2023-12-28T12:14:16;11.75;82.44
65584;DHT22;73032;43.592;1.458;2023-12-28T12:16:43;11.72;82.05
65584;DHT22;73032;43.592;1.458;2023-12-28T12:19:10;11.77;81.95
65584;DHT22;73032;43.592;1.458;2023-12-28T12:21:37;11.75;82.27
65584;DHT22;73032;43.592;1.458;2023-12-28T12:24:04;11.72;82.24
65584;DHT22;73032;43.592;1.458;2023-12-28T12:26:31;11.71;82.16
65584;DHT22;73032;43.592;1.458;2023-12-28T12:28:58;11.71;82.25
65584;DHT22;73032;43.592;1.458;2023-12-28T12:31:25;11.70;82.35
65584;DHT22;73032;43.592;1.458;2023-12-28T12:33:53;11.71;82.14
65584;DHT22;73032;43.592;1.458;2023-12-28T12:36:20;11.70;82.16
65584;DHT22;73032;43.592;1.458;2023-12-28T12:38:48;11.70;81.93
65584;DHT22;73032;43.592;1.458;2023-12-28T12:41:15;11.68;81.93
65584;DHT22;73032;43.592;1.458;2023-12-28T12:43:42;11.67;81.73
65584;DHT22;73032;43.592;1.458;2023-12-28T12:46:09;11.70;81.85
65584;DHT22;73032;43.592;1.458;2023-12-28T12:48:36;11.65;81.86
65584;DHT22;73032;43.592;1.458;2023-12-28T12:51:03;11.70;81.74
65584;DHT22;73032;43.592;1.458;2023-12-28T12:53:36;11.75;81.53
65584;DHT22;73032;43.592;1.458;2023-12-28T12:56:04;11.68;81.54
65584;DHT22;73032;43.592;1.458;2023-12-28T12:58:31;11.67;81.96
65584;DHT22;73032;43.592;1.458;2023-12-28T13:01:03;11.67;81.80
65584;DHT22;73032;43.592;1.458;2023-12-28T13:03:30;11.68;81.59
65584;DHT22;73032;43.592;1.458;2023-12-28T13:05:57;11.65;81.44
65584;DHT22;73032;43.592;1.458;2023-12-28T13:08:24;11.60;81.54
65584;DHT22;73032;43.592;1.458;2023-12-28T13:10:50;11.57;81.67
65584;DHT22;73032;43.592;1.458;2023-12-28T13:13:17;11.60;80.86
65584;DHT22;73032;43.592;1.458;2023-12-28T13:15:44;11.62;80.94
65584;DHT22;73032;43.592;1.458;2023-12-28T13:18:11;11.57;80.61
65584;DHT22;73032;43.592;1.458;2023-12-28T13:20:38;11.54;80.89
65584;DHT22;73032;43.592;1.458;2023-12-28T13:23:05;11.50;80.82
65584;DHT22;73032;43.592;1.458;2023-12-28T13:25:33;11.54;80.86
65584;DHT22;73032;43.592;1.458;2023-12-28T13:28:00;11.52;80.56
65584;DHT22;73032;43.592;1.458;2023-12-28T13:30:27;11.52;80.36
65584;DHT22;73032;43.592;1.458;2023-12-28T13:32:55;11.51;80.23
65584;DHT22;73032;43.592;1.458;2023-12-28T13:35:26;11.57;80.13
65584;DHT22;73032;43.592;1.458;2023-12-28T13:37:52;11.50;80.31
65584;DHT22;73032;43.592;1.458;2023-12-28T13:40:19;11.57;80.25
65584;DHT22;73032;43.592;1.458;2023-12-28T13:42:47;11.54;80.04
65584;DHT22;73032;43.592;1.458;2023-12-28T13:45:13;11.58;79.86
65584;DHT22;73032;43.592;1.458;2023-12-28T13:47:43;11.61;79.96
65584;DHT22;73032;43.592;1.458;2023-12-28T13:50:11;11.61;79.81
65584;DHT22;73032;43.592;1.458;2023-12-28T13:52:37;11.61;79.96
65584;DHT22;73032;43.592;1.458;2023-12-28T13:55:04;11.61;80.13
65584;DHT22;73032;43.592;1.458;2023-12-28T13:57:31;11.64;80.32
65584;DHT22;73032;43.592;1.458;2023-12-28T14:00:01;11.64;80.08
65584;DHT22;73032;43.592;1.458;2023-12-28T14:02:28;11.68;80.12
65584;DHT22;73032;43.592;1.458;2023-12-28T14:04:55;11.75;79.75
65584;DHT22;73032;43.592;1.458;2023-12-28T14:07:23;11.77;79.88
65584;DHT22;73032;43.592;1.458;2023-12-28T14:09:51;11.78;79.77
65584;DHT22;73032;43.592;1.458;2023-12-28T14:12:18;11.78;79.81
65584;DHT22;73032;43.592;1.458;2023-12-28T14:14:45;11.79;80.03
65584;DHT22;73032;43.592;1.458;2023-12-28T14:17:11;11.77;79.73
65584;DHT22;73032;43.592;1.458;2023-12-28T14:19:38;11.77;79.62
65584;DHT22;73032;43.592;1.458;2023-12-28T14:22:05;11.88;79.64
65584;DHT22;73032;43.592;1.458;2023-12-28T14:24:32;11.86;79.60
65584;DHT22;73032;43.592;1.458;2023-12-28T14:27:02;11.94;79.55
65584;DHT22;73032;43.592;1.458;2023-12-28T14:29:30;11.94;79.36
65584;DHT22;73032;43.592;1.458;2023-12-28T14:31:58;11.96;79.37
65584;DHT22;73032;43.592;1.458;2023-12-28T14:34:25;12.01;79.43
65584;DHT22;73032;43.592;1.458;2023-12-28T14:36:53;12.01;79.41
65584;DHT22;73032;43.592;1.458;2023-12-28T14:39:20;11.98;79.41
65584;DHT22;73032;43.592;1.458;2023-12-28T14:41:47;11.95;79.30
65584;DHT22;73032;43.592;1.458;2023-12-28T14:44:13;11.95;79.34
65584;DHT22;73032;43.592;1.458;2023-12-28T14:46:40;11.94;79.41
65584;DHT22;73032;43.592;1.458;2023-12-28T14:49:07;11.91;79.07
65584;DHT22;73032;43.592;1.458;2023-12-28T14:51:34;11.92;79.08
65584;DHT22;73032;43.592;1.458;2023-12-28T14:54:01;11.88;79.19
65584;DHT22;73032;43.592;1.458;2023-12-28T14:56:28;11.86;78.99
65584;DHT22;73032;43.592;1.458;2023-12-28T14:59:06;11.84;79.09
65584;DHT22;73032;43.592;1.458;2023-12-28T15:01:33;11.84;79.15
65584;DHT22;73032;43.592;1.458;2023-12-28T15:03:59;11.86;79.06
65584;DHT22;73032;43.592;1.458;2023-12-28T15:06:26;11.91;78.13
65584;DHT22;73032;43.592;1.458;2023-12-28T15:08:53;11.89;78.90
65584;DHT22;73032;43.592;1.458;2023-12-28T15:11:23;11.79;79.12
65584;DHT22;73032;43.592;1.458;2023-12-28T15:14:06;11.84;79.34
65584;DHT22;73032;43.592;1.458;2023-12-28T15:16:33;11.77;79.01
65584;DHT22;73032;43.592;1.458;2023-12-28T15:19:01;11.84;78.97
65584;DHT22;73032;43.592;1.458;2023-12-28T15:21:28;11.84;79.09
65584;DHT22;73032;43.592;1.458;2023-12-28T15:23:55;11.79;79.05
65584;DHT22;73032;43.592;1.458;2023-12-28T15:26:23;11.78;79.28
65584;DHT22;73032;43.592;1.458;2023-12-28T15:28:49;11.81;78.48
65584;DHT22;73032;43.592;1.458;2023-12-28T15:31:16;11.79;79.13
65584;DHT22;73032;43.592;1.458;2023-12-28T15:33:43;11.79;78.59
65584;DHT22;73032;43.592;1.458;2023-12-28T15:36:10;11.88;78.32
65584;DHT22;73032;43.592;1.458;2023-12-28T15:38:37;11.77;78.69
65584;DHT22;73032;43.592;1.458;2023-12-28T15:41:03;11.84;78.19
65584;DHT22;73032;43.592;1.458;2023-12-28T15:43:30;11.78;78.45
65584;DHT22;73032;43.592;1.458;2023-12-28T15:45:57;11.75;78.76
65584;DHT22;73032;43.592;1.458;2023-12-28T15:48:24;11.72;78.98
65584;DHT22;73032;43.592;1.458;2023-12-28T15:50:52;11.77;78.59
65584;DHT22;73032;43.592;1.458;2023-12-28T15:53:19;11.84;78.75
65584;DHT22;73032;43.592;1.458;2023-12-28T15:55:46;11.94;78.03
65584;DHT22;73032;43.592;1.458;2023-12-28T15:58:13;11.88;78.43
65584;DHT22;73032;43.592;1.458;2023-12-28T16:00:40;11.94;78.16